sensor_id;sensor_type;location;lat;lon;timestamp;P1;durP1;ratioP1;P2;durP2;ratioP2
71610;SDS011;59459;51.172;6.682;2022-10-03T09:20:18;16.67;;;5.22;;
71610;SDS011;59459;51.172;6.682;2022-10-03T09:22:59;14.77;;;4.43;;
71610;SDS011;59459;51.172;6.682;2022-10-03T09:30:34;10.43;;;3.35;;
71610;SDS011;59459;51.172;6.682;2022-10-03T16:11:49;6.63;;;1.95;;
71610;SDS011;59459;51.172;6.682;2022-10-03T16:14:22;8.02;;;2.67;;
71610;SDS011;59459;51.172;6.682;2022-10-03T16:19:19;7.07;;;2.50;;
71610;SDS011;59459;51.172;6.682;2022-10-03T16:24:26;7.97;;;2.13;;
71610;SDS011;59459;51.172;6.682;2022-10-03T16:26:54;5.38;;;1.73;;
71610;SDS011;59459;51.172;6.682;2022-10-03T16:29:24;7.45;;;2.50;;
71610;SDS011;59459;51.172;6.682;2022-10-03T16:31:53;8.33;;;2.27;;
71610;SDS011;59459;51.172;6.682;2022-10-03T16:34:19;7.07;;;2.08;;
71610;SDS011;59459;51.172;6.682;2022-10-03T16:36:46;7.22;;;2.00;;
71610;SDS011;59459;51.172;6.682;2022-10-03T16:39:20;7.30;;;1.80;;
71610;SDS011;59459;51.172;6.682;2022-10-03T16:41:47;10.75;;;3.15;;
71610;SDS011;59459;51.172;6.682;2022-10-03T16:44:18;10.77;;;3.90;;
71610;SDS011;59459;51.172;6.682;2022-10-03T16:46:44;11.35;;;4.53;;
71610;SDS011;59459;51.172;6.682;2022-10-03T16:49:15;14.05;;;4.80;;
71610;SDS011;59459;51.172;6.682;2022-10-03T16:52:04;16.35;;;6.88;;
71610;SDS011;59459;51.172;6.682;2022-10-03T16:54:33;15.20;;;6.77;;
71610;SDS011;59459;51.172;6.682;2022-10-03T16:56:59;17.13;;;6.55;;
71610;SDS011;59459;51.172;6.682;2022-10-03T16:59:26;13.10;;;5.13;;
71610;SDS011;59459;51.172;6.682;2022-10-03T17:02:05;13.95;;;5.22;;
71610;SDS011;59459;51.172;6.682;2022-10-03T17:04:37;12.55;;;4.30;;
71610;SDS011;59459;51.172;6.682;2022-10-03T17:07:13;10.25;;;3.85;;
71610;SDS011;59459;51.172;6.682;2022-10-03T17:09:50;11.73;;;3.00;;
71610;SDS011;59459;51.172;6.682;2022-10-03T17:12:17;9.73;;;3.30;;
71610;SDS011;59459;51.172;6.682;2022-10-03T17:14:45;10.60;;;3.05;;
71610;SDS011;59459;51.172;6.682;2022-10-03T17:19:43;9.20;;;3.00;;
71610;SDS011;59459;51.172;6.682;2022-10-03T17:22:19;11.25;;;3.30;;
71610;SDS011;59459;51.172;6.682;2022-10-03T17:24:47;11.43;;;3.78;;
71610;SDS011;59459;51.172;6.682;2022-10-03T17:27:58;11.48;;;3.70;;
71610;SDS011;59459;51.172;6.682;2022-10-03T17:30:03;10.20;;;4.07;;
71610;SDS011;59459;51.172;6.682;2022-10-03T17:32:32;8.70;;;3.73;;
71610;SDS011;59459;51.172;6.682;2022-10-03T17:37:38;10.20;;;3.87;;
71610;SDS011;59459;51.172;6.682;2022-10-03T17:53:04;14.70;;;6.40;;
71610;SDS011;59459;51.172;6.682;2022-10-03T17:55:30;14.18;;;6.07;;
71610;SDS011;59459;51.172;6.682;2022-10-03T17:58:02;14.55;;;6.88;;
71610;SDS011;59459;51.172;6.682;2022-10-03T18:00:30;17.15;;;7.30;;
71610;SDS011;59459;51.172;6.682;2022-10-03T18:07:51;17.63;;;7.07;;
71610;SDS011;59459;51.172;6.682;2022-10-03T18:10:27;15.17;;;7.43;;
71610;SDS011;59459;51.172;6.682;2022-10-03T18:12:54;15.18;;;7.20;;
71610;SDS011;59459;51.172;6.682;2022-10-03T18:15:22;17.02;;;7.03;;
71610;SDS011;59459;51.172;6.682;2022-10-03T18:22:53;16.70;;;7.90;;
71610;SDS011;59459;51.172;6.682;2022-10-03T18:28:15;14.02;;;8.25;;
71610;SDS011;59459;51.172;6.682;2022-10-03T18:33:09;16.35;;;8.52;;
71610;SDS011;59459;51.172;6.682;2022-10-03T18:35:37;15.40;;;7.83;;
71610;SDS011;59459;51.172;6.682;2022-10-03T18:46:40;16.08;;;8.38;;
71610;SDS011;59459;51.172;6.682;2022-10-03T18:56:00;16.43;;;8.17;;
71610;SDS011;59459;51.172;6.682;2022-10-03T18:58:36;14.50;;;7.97;;
71610;SDS011;59459;51.172;6.682;2022-10-03T19:01:21;20.42;;;8.82;;
71610;SDS011;59459;51.172;6.682;2022-10-03T19:03:59;14.13;;;8.55;;
71610;SDS011;59459;51.172;6.682;2022-10-03T19:06:27;19.27;;;9.67;;
71610;SDS011;59459;51.172;6.682;2022-10-03T19:08:54;18.67;;;9.75;;
71610;SDS011;59459;51.172;6.682;2022-10-03T19:16:28;19.63;;;9.68;;
71610;SDS011;59459;51.172;6.682;2022-10-03T19:19:10;15.40;;;9.47;;
71610;SDS011;59459;51.172;6.682;2022-10-03T19:21:39;17.50;;;9.32;;
71610;SDS011;59459;51.172;6.682;2022-10-03T19:24:19;16.67;;;9.88;;
71610;SDS011;59459;51.172;6.682;2022-10-03T19:26:46;19.10;;;9.45;;
71610;SDS011;59459;51.172;6.682;2022-10-03T19:29:13;17.75;;;9.70;;
71610;SDS011;59459;51.172;6.682;2022-10-03T19:31:50;17.90;;;8.73;;
71610;SDS011;59459;51.172;6.682;2022-10-03T19:34:38;19.65;;;9.77;;
71610;SDS011;59459;51.172;6.682;2022-10-03T19:37:04;16.63;;;7.75;;
71610;SDS011;59459;51.172;6.682;2022-10-03T19:39:31;17.30;;;8.07;;
71610;SDS011;59459;51.172;6.682;2022-10-03T19:42:21;20.23;;;9.43;;
71610;SDS011;59459;51.172;6.682;2022-10-03T19:44:43;15.40;;;8.90;;
71610;SDS011;59459;51.172;6.682;2022-10-03T19:47:27;17.13;;;9.55;;
71610;SDS011;59459;51.172;6.682;2022-10-03T19:49:58;17.63;;;10.18;;
71610;SDS011;59459;51.172;6.682;2022-10-03T19:52:27;14.40;;;9.10;;
71610;SDS011;59459;51.172;6.682;2022-10-03T20:02:41;18.10;;;8.27;;
71610;SDS011;59459;51.172;6.682;2022-10-03T20:05:07;13.80;;;7.47;;
71610;SDS011;59459;51.172;6.682;2022-10-03T20:10:09;14.18;;;7.88;;
71610;SDS011;59459;51.172;6.682;2022-10-03T20:12:37;20.13;;;8.55;;
71610;SDS011;59459;51.172;6.682;2022-10-03T20:15:10;20.38;;;9.45;;
71610;SDS011;59459;51.172;6.682;2022-10-03T20:17:39;24.97;;;11.17;;
71610;SDS011;59459;51.172;6.682;2022-10-03T20:20:10;18.77;;;10.40;;
71610;SDS011;59459;51.172;6.682;2022-10-03T20:22:40;18.30;;;10.07;;
71610;SDS011;59459;51.172;6.682;2022-10-03T20:25:06;20.45;;;9.93;;
71610;SDS011;59459;51.172;6.682;2022-10-03T20:27:44;20.20;;;9.53;;
71610;SDS011;59459;51.172;6.682;2022-10-03T20:32:44;18.63;;;9.02;;
71610;SDS011;59459;51.172;6.682;2022-10-03T20:35:11;20.90;;;9.82;;
71610;SDS011;59459;51.172;6.682;2022-10-03T20:37:40;18.88;;;9.75;;
71610;SDS011;59459;51.172;6.682;2022-10-03T20:40:14;18.70;;;10.23;;
71610;SDS011;59459;51.172;6.682;2022-10-03T20:42:42;19.90;;;10.38;;
71610;SDS011;59459;51.172;6.682;2022-10-03T20:45:21;21.20;;;11.60;;
71610;SDS011;59459;51.172;6.682;2022-10-03T20:47:49;20.65;;;11.60;;
71610;SDS011;59459;51.172;6.682;2022-10-03T20:52:47;17.47;;;10.50;;
71610;SDS011;59459;51.172;6.682;2022-10-03T20:55:21;17.52;;;9.80;;
71610;SDS011;59459;51.172;6.682;2022-10-03T20:57:50;17.55;;;9.38;;
71610;SDS011;59459;51.172;6.682;2022-10-03T21:00:18;18.30;;;9.40;;
71610;SDS011;59459;51.172;6.682;2022-10-03T21:05:16;15.67;;;8.37;;
71610;SDS011;59459;51.172;6.682;2022-10-03T21:07:47;14.83;;;7.67;;
71610;SDS011;59459;51.172;6.682;2022-10-03T21:10:29;13.85;;;7.22;;
71610;SDS011;59459;51.172;6.682;2022-10-03T21:13:09;16.52;;;7.72;;
71610;SDS011;59459;51.172;6.682;2022-10-03T21:15:48;15.57;;;8.13;;
71610;SDS011;59459;51.172;6.682;2022-10-03T21:18:24;15.52;;;7.25;;
71610;SDS011;59459;51.172;6.682;2022-10-03T21:21:00;16.40;;;7.97;;
71610;SDS011;59459;51.172;6.682;2022-10-03T21:23:27;17.45;;;8.68;;
71610;SDS011;59459;51.172;6.682;2022-10-03T21:25:53;16.80;;;8.65;;
71610;SDS011;59459;51.172;6.682;2022-10-03T21:28:31;18.93;;;9.13;;
71610;SDS011;59459;51.172;6.682;2022-10-03T21:33:28;17.95;;;8.65;;
71610;SDS011;59459;51.172;6.682;2022-10-03T21:35:54;16.60;;;7.97;;
71610;SDS011;59459;51.172;6.682;2022-10-03T21:38:31;16.23;;;8.35;;
71610;SDS011;59459;51.172;6.682;2022-10-03T21:43:46;15.93;;;8.00;;
71610;SDS011;59459;51.172;6.682;2022-10-03T21:46:14;14.70;;;7.53;;
71610;SDS011;59459;51.172;6.682;2022-10-03T21:51:21;18.88;;;8.50;;
71610;SDS011;59459;51.172;6.682;2022-10-03T21:54:09;20.10;;;9.00;;
71610;SDS011;59459;51.172;6.682;2022-10-03T22:06:26;17.20;;;8.13;;
71610;SDS011;59459;51.172;6.682;2022-10-03T22:08:52;17.95;;;8.45;;
71610;SDS011;59459;51.172;6.682;2022-10-03T22:11:21;17.40;;;7.57;;
71610;SDS011;59459;51.172;6.682;2022-10-03T22:27:19;18.33;;;8.20;;
71610;SDS011;59459;51.172;6.682;2022-10-03T22:29:47;17.45;;;7.88;;
71610;SDS011;59459;51.172;6.682;2022-10-03T22:32:23;15.32;;;7.05;;
71610;SDS011;59459;51.172;6.682;2022-10-03T22:35:15;18.90;;;7.07;;
71610;SDS011;59459;51.172;6.682;2022-10-03T22:37:36;14.82;;;7.25;;
71610;SDS011;59459;51.172;6.682;2022-10-03T22:40:02;20.40;;;8.27;;
71610;SDS011;59459;51.172;6.682;2022-10-03T22:42:28;13.60;;;7.97;;
71610;SDS011;59459;51.172;6.682;2022-10-03T22:44:54;15.63;;;7.50;;
71610;SDS011;59459;51.172;6.682;2022-10-03T22:47:21;15.02;;;7.20;;
71610;SDS011;59459;51.172;6.682;2022-10-03T22:49:48;17.13;;;7.78;;
71610;SDS011;59459;51.172;6.682;2022-10-03T22:52:17;15.03;;;7.17;;
71610;SDS011;59459;51.172;6.682;2022-10-03T22:54:44;16.85;;;7.50;;
71610;SDS011;59459;51.172;6.682;2022-10-03T22:57:11;16.27;;;6.95;;
71610;SDS011;59459;51.172;6.682;2022-10-03T23:02:09;17.85;;;6.70;;
71610;SDS011;59459;51.172;6.682;2022-10-03T23:04:42;14.70;;;7.13;;
71610;SDS011;59459;51.172;6.682;2022-10-03T23:07:14;12.60;;;6.40;;
71610;SDS011;59459;51.172;6.682;2022-10-03T23:12:43;13.27;;;6.07;;
71610;SDS011;59459;51.172;6.682;2022-10-03T23:15:12;11.02;;;5.32;;
71610;SDS011;59459;51.172;6.682;2022-10-03T23:20:39;13.23;;;6.18;;
71610;SDS011;59459;51.172;6.682;2022-10-03T23:22:57;13.65;;;6.65;;
71610;SDS011;59459;51.172;6.682;2022-10-03T23:25:31;14.63;;;5.80;;
71610;SDS011;59459;51.172;6.682;2022-10-03T23:30:51;12.55;;;5.80;;
71610;SDS011;59459;51.172;6.682;2022-10-03T23:34:02;10.57;;;5.38;;
71610;SDS011;59459;51.172;6.682;2022-10-03T23:36:16;12.38;;;5.40;;
71610;SDS011;59459;51.172;6.682;2022-10-03T23:41:14;11.30;;;5.20;;
71610;SDS011;59459;51.172;6.682;2022-10-03T23:46:11;13.00;;;5.38;;
71610;SDS011;59459;51.172;6.682;2022-10-03T23:48:42;14.02;;;5.97;;
71610;SDS011;59459;51.172;6.682;2022-10-03T23:51:09;13.70;;;6.40;;
71610;SDS011;59459;51.172;6.682;2022-10-03T23:53:43;14.30;;;5.68;;
71610;SDS011;59459;51.172;6.682;2022-10-03T23:58:45;12.82;;;6.15;;
